Kezdőlap
METAR-TAF:

METAR-TAF

Repülőterek :

Hartness State Airport

Springfield, Vermont, Amerikai Egyesült Államok

földrajzi szélesség: 43-20-33N, földrajzi hosszúság: 072-31-18W, magasság: 175 m

Jelenlegi meteorológiai megfigyelések

A jelentés 17 perccel ezelõtt készült, 08:54 UTC
Szélcsend
Hőmérséklet 17°C
Páratartalom 94%
Légköri nyomás 1005 hPa
Látótávolság: 16.1 km
Kevés felhő 2100 lábon
Szórványos felhőzet 11000 lábon

METAR: KVSF 200854Z AUTO 00000KT 10SM FEW021 SCT110 17/16 A2967 RMK AO2 RAE49 SLP046 P0000 60004 T01720161 56004

Idő: 05:11 (09:11 UTC)


TAF: hiányzik

Meteorológiai megfigyelések és előrejelzések több, mint 4000 repülőtéren (METAR és TAF jelentéseket).

A térképen piros és sárga pontok jelzik az elérhető meteorológiai állomásokat.

Mozgassa az egeret a pont fölött, hogy megjelenjen az állomás neve.

Azután kattintson az időjárási megfigyelések és előrejelzések megtekintéséhez.

A térkép megváltoztatása: kattintson a fekete keresztel jelölt zöld gombra ráközelítéshez, a vonallal jelölt zöld gombra távolításhoz, vagy a zöld nyilakra a szomszédos térképek eléréséhez.


METAR-TAF: